首页
METAR-TAF:

METAR-TAF

机场 :

巴塞尔-米卢斯-弗赖堡欧洲机场

巴塞尔-米卢斯-弗赖堡欧洲机场, 法国

纬度: 47-36N, 经度: 007-31E, 海拔: 270米

当前天气观测

该预报发布于12分钟前的05:30 UTC
风速3节,风向多变
温度 11°C
湿度 82%
气压 1033 hPa
能见度10公里或以上
1500米以下无云,无积雨云

METAR: LFSB 250530Z AUTO VRB03KT CAVOK 11/08 Q1033 NOSIG

时间: 07:42 (05:42 UTC)

预报

该预报发布于42分钟前的05:00 UTC
预报有效从25日的 06点(UTC)到 26日的 06点(UTC)
风速3节,风向多变
能见度10公里或以上
1500米以下无云,无积雨云
成为
从 25日的 08点(UTC)到 25日的 11点(UTC)
风速10节,风向
成为
从 25日的 19点(UTC)到 25日的 22点(UTC)
风速3节,风向多变

TAF: LFSB 250500Z 2506/2606 VRB03KT CAVOK BECMG 2508/2511 36010KT BECMG 2519/2522 VRB03KT

超过4000个机场的气象观测和天气预报(METAR&TAF报告)。

可查询的气象台以黄色和红色小点在地图上表示。

将鼠标移到小点上方,可查看气象台名称。

然后点击查看天气观测和预报。

如需切换地图:点击带黑十字的绿色按钮放大地图;点击带横线的绿色按钮缩小地图;或者点击绿色箭头查看邻近地区的地图。


METAR-TAF: